This is the latest recevied weather packets stored in our database for station/object DL5XL-13. If no packets are shown the sender has not sent any weather packets the latest 10 day(s).
| Time | Temp. | Humidity | Pressure | Rain* | Wind** | Luminosity | Snow |
|---|---|---|---|---|---|---|---|
| 1787859382 | 23.33° C | 72% | 1010 hPa | - | - | - | - |
| 1787858484 | 24.44° C | 60% | 1010 hPa | - | - | - | - |
| 1787857715 | 23.89° C | 70% | 1011 hPa | - | - | - | - |
| 1787856872 | 23.89° C | 70% | 1011 hPa | - | - | - | - |
| 1787856094 | 24.44° C | 70% | 1011 hPa | - | - | - | - |
| 1787855324 | 25.56° C | 59% | 1010 hPa | - | - | - | - |
| 1787854532 | 26.11° C | 58% | 1010 hPa | - | - | - | - |
| 1787854392 | 26.11° C | 58% | 1010 hPa | - | - | - | - |
| 1787853696 | 25.56° C | 69% | 1010 hPa | - | - | - | - |
| 1787852899 | 25.56° C | 69% | 1010 hPa | - | - | - | - |
| 1787852140 | 25.56° C | 69% | 1010 hPa | - | - | - | - |
| 1787851299 | 26.67° C | 57% | 1010 hPa | - | - | - | - |
| 1787850865 | 27.22° C | 56% | 1010 hPa | - | - | - | - |
| 1787850519 | 27.22° C | 56% | 1010 hPa | - | - | - | - |
| 1787849762 | 26.67° C | 65% | 1011 hPa | - | - | - | - |
| 1787848962 | 26.67° C | 55% | 1011 hPa | - | - | - | - |
| 1787848198 | 26.67° C | 55% | 1010 hPa | - | - | - | - |
| 1787847736 | 26.67° C | 55% | 1010 hPa | - | - | - | - |
| 1787847734 | 26.67° C | 55% | 1010 hPa | - | - | - | - |
| 1787847467 | 26.67° C | 55% | 1010 hPa | - | - | - | - |
| 1787846714 | 26.67° C | 55% | 1010 hPa | - | - | - | - |
| 1787845879 | 27.22° C | 55% | 1011 hPa | - | - | - | - |
| 1787845109 | 27.78° C | 57% | 1011 hPa | - | - | - | - |
| 1787844673 | 27.78° C | 53% | 1011 hPa | - | - | - | - |
| 1787844219 | 27.78° C | 53% | 1011 hPa | - | - | - | - |
* Rain since midnight (hover to see other rain measurements)
** Current wind speed in m/s (hover to see current wind gust speed)